Terminal Aerodrome Forecast
Issued by NWS

Home | Current Version | Previous Version | Text Only | Print | Product List | Glossary On
Versions: 1 2 3 4 5 6 7 8 9 10 11 12 13
497
FTUS45 KVEF 091120
TAFVGT
TAF
KVGT 091120Z 0912/1012 35011KT P6SM SKC
     FM091800 VRB04KT P6SM SKC
     FM100500 32006KT P6SM SKC=

USA.gov is the U.S. government's official web portal to all federal, state and local government web resources and services.